Time;durP1;ratioP1;P1;durP2;ratioP2;P2;SDS_P1;SDS_P2;PMS_P1;PMS_P2;Temp;Humidity;BMP_temperature;BMP_pressure;BME280_temperature;BME280_humidity;BME280_pressure;Samples;Min_cycle;Max_cycle;Signal;HPM_P1;HPM_P2
2023/12/04 00:01:45;;;;;;;20.98;12.02;;;;;;;-1.78;83.28;98219.56;4186895;28;20214;-84
2023/12/04 00:03:48;;;;;;;28.60;15.15;;;;;;;-1.77;82.98;98216.16;4173791;28;20313;-84
2023/12/04 00:05:52;;;;;;;25.17;14.60;;;;;;;-1.77;83.00;98215.31;4178443;28;20210;-84
2023/12/04 00:07:55;;;;;;;27.40;14.38;;;;;;;-1.77;83.48;98210.22;4171228;28;20577;-84
2023/12/04 00:09:59;;;;;;;29.15;14.48;;;;;;;-1.77;82.77;98213.59;4184201;28;20225;-84
2023/12/04 00:12:03;;;;;;;31.80;16.65;;;;;;;-1.77;83.54;98203.38;4183057;28;20273;-84
2023/12/04 00:14:06;;;;;;;25.95;13.23;;;;;;;-1.75;83.49;98195.69;4183249;28;20190;-84
2023/12/04 00:16:10;;;;;;;21.98;13.82;;;;;;;-1.77;83.82;98192.34;4185859;28;20261;-85
2023/12/04 00:18:13;;;;;;;24.92;15.60;;;;;;;-1.72;83.58;98181.13;4187953;28;20212;-84
2023/12/04 00:20:16;;;;;;;24.40;13.45;;;;;;;-1.68;83.39;98181.94;4175728;28;20240;-84
2023/12/04 00:22:19;;;;;;;23.13;13.45;;;;;;;-1.66;83.13;98177.63;4187963;28;20217;-84
2023/12/04 00:24:23;;;;;;;22.23;13.27;;;;;;;-1.69;82.45;98178.53;4184100;28;20228;-86
2023/12/04 00:26:26;;;;;;;25.00;14.00;;;;;;;-1.69;82.45;98175.13;4185787;28;20319;-85
2023/12/04 00:28:29;;;;;;;22.30;12.90;;;;;;;-1.70;82.65;98184.53;4173221;28;20199;-84
2023/12/04 00:30:33;;;;;;;20.63;13.05;;;;;;;-1.71;82.56;98182.81;4167694;28;20632;-84
2023/12/04 00:32:36;;;;;;;20.58;12.23;;;;;;;-1.70;82.81;98183.66;4172135;28;20230;-84
2023/12/04 00:34:39;;;;;;;25.08;11.95;;;;;;;-1.69;82.70;98185.34;4167013;28;20815;-84
2023/12/04 00:36:42;;;;;;;18.50;11.55;;;;;;;-1.69;82.05;98180.25;4186459;28;20201;-85
2023/12/04 00:38:46;;;;;;;18.83;11.20;;;;;;;-1.67;81.97;98179.34;4185621;28;20209;-85
2023/12/04 00:40:49;;;;;;;26.95;12.90;;;;;;;-1.68;81.76;98170.00;4182577;28;20205;-86
2023/12/04 00:42:53;;;;;;;24.38;12.13;;;;;;;-1.71;81.63;98164.09;4185965;28;20236;-85
2023/12/04 00:44:57;;;;;;;20.90;11.32;;;;;;;-1.74;81.59;98164.16;4182266;28;20217;-83
2023/12/04 00:47:00;;;;;;;20.02;11.40;;;;;;;-1.76;81.73;98156.53;4185187;28;20293;-84
2023/12/04 00:49:03;;;;;;;18.20;11.30;;;;;;;-1.78;81.79;98152.31;4186231;28;20280;-84
2023/12/04 00:51:06;;;;;;;21.08;11.07;;;;;;;-1.80;82.41;98152.34;4185961;28;20368;-84
2023/12/04 00:53:09;;;;;;;21.85;12.20;;;;;;;-1.79;81.98;98143.81;4187145;28;20218;-84
2023/12/04 00:55:13;;;;;;;19.50;11.07;;;;;;;-1.79;81.96;98145.50;4188916;28;20205;-84
2023/12/04 00:57:16;;;;;;;19.75;12.07;;;;;;;-1.79;82.11;98137.84;4186393;28;20232;-84
2023/12/04 00:59:21;;;;;;;21.65;11.02;;;;;;;-1.82;82.14;98133.66;4184375;28;20289;-84
2023/12/04 01:01:24;;;;;;;21.80;11.90;;;;;;;-1.80;82.25;98126.78;4191060;28;20207;-85
2023/12/04 01:03:26;;;;;;;20.02;11.80;;;;;;;-1.83;82.39;98131.97;4184423;28;20256;-84
2023/12/04 01:05:29;;;;;;;20.85;11.07;;;;;;;-1.78;82.42;98144.66;4177582;28;20232;-84
2023/12/04 01:07:33;;;;;;;20.45;11.05;;;;;;;-1.75;82.52;98149.69;4180458;28;20728;-84
2023/12/04 01:09:36;;;;;;;19.55;10.38;;;;;;;-1.74;82.97;98151.41;4204702;28;20785;-84
2023/12/04 01:11:39;;;;;;;21.02;10.65;;;;;;;-1.75;83.08;98139.47;4166962;28;20207;-84
2023/12/04 01:13:42;;;;;;;18.15;11.18;;;;;;;-1.76;82.70;98135.22;4185747;28;20293;-86
2023/12/04 01:15:48;;;;;;;17.60;10.60;;;;;;;-1.78;82.12;98129.31;4185954;28;20201;-84
2023/12/04 01:17:51;;;;;;;21.00;11.38;;;;;;;-1.83;81.70;98126.84;4187458;28;20714;-85
2023/12/04 01:19:54;;;;;;;17.80;11.80;;;;;;;-1.85;82.13;98118.38;4189149;28;20661;-85
2023/12/04 01:21:57;;;;;;;18.35;11.10;;;;;;;-1.86;82.67;98111.59;4188915;28;20208;-84
2023/12/04 01:24:00;;;;;;;18.77;11.15;;;;;;;-1.82;83.22;98117.47;4185284;28;20627;-84
2023/12/04 01:26:04;;;;;;;21.05;12.05;;;;;;;-1.79;82.04;98120.81;4181671;28;20201;-84
2023/12/04 01:28:07;;;;;;;21.17;10.63;;;;;;;-1.80;82.01;98116.56;4188931;28;20201;-84
2023/12/04 01:30:13;;;;;;;21.50;11.75;;;;;;;-1.78;81.52;98114.00;4186626;28;20210;-85
2023/12/04 01:32:18;;;;;;;18.75;11.38;;;;;;;-1.80;81.83;98115.75;4188013;28;20764;-84
2023/12/04 01:34:21;;;;;;;22.08;11.32;;;;;;;-1.77;81.94;98105.47;4188866;28;20224;-83
2023/12/04 01:36:24;;;;;;;20.52;10.60;;;;;;;-1.80;82.85;98101.25;4187725;28;20216;-85
2023/12/04 01:38:28;;;;;;;19.83;10.13;;;;;;;-1.83;82.93;98103.03;4184573;28;20289;-84
2023/12/04 01:40:31;;;;;;;19.10;10.95;;;;;;;-1.81;82.57;98103.84;4190593;28;20209;-85
2023/12/04 01:42:34;;;;;;;21.45;10.82;;;;;;;-1.79;82.27;98107.19;4183628;28;20683;-84
2023/12/04 01:44:37;;;;;;;18.42;10.45;;;;;;;-1.88;80.99;98098.88;4165559;28;20221;-84
2023/12/04 01:46:43;;;;;;;18.52;10.75;;;;;;;-1.91;81.81;98089.56;4185599;28;20214;-84
2023/12/04 01:48:48;;;;;;;18.27;10.10;;;;;;;-1.86;82.84;98095.44;4173075;28;20208;-85
2023/12/04 01:50:51;;;;;;;17.15;10.45;;;;;;;-1.82;82.67;98092.78;4171357;28;20213;-84
2023/12/04 01:52:55;;;;;;;19.70;10.88;;;;;;;-1.79;83.05;98097.81;4174203;28;20305;-84
2023/12/04 01:54:58;;;;;;;17.58;9.93;;;;;;;-1.76;83.04;98092.66;4186619;28;20255;-84
2023/12/04 01:57:02;;;;;;;18.95;10.73;;;;;;;-1.74;82.27;98096.00;4173541;28;20225;-85
2023/12/04 01:59:05;;;;;;;20.02;10.63;;;;;;;-1.75;83.47;98094.31;4188336;28;20696;-85
2023/12/04 02:01:08;;;;;;;17.75;11.00;;;;;;;-1.71;83.50;98095.13;4183441;28;20237;-84
2023/12/04 02:03:12;;;;;;;19.13;10.50;;;;;;;-1.70;83.17;98096.78;4187243;28;22041;-84
2023/12/04 02:05:17;;;;;;;19.90;10.43;;;;;;;-1.69;82.94;98094.19;4188088;28;20981;-84
2023/12/04 02:07:20;;;;;;;16.73;9.45;;;;;;;-1.70;83.36;98096.78;4168958;28;20211;-84
2023/12/04 02:09:24;;;;;;;19.55;11.52;;;;;;;-1.71;82.89;98090.00;4190351;28;20247;-84
2023/12/04 02:11:26;;;;;;;19.23;10.98;;;;;;;-1.69;83.10;98091.63;4180637;28;20273;-84
2023/12/04 02:13:29;;;;;;;17.63;10.45;;;;;;;-1.68;82.68;98095.88;4185726;28;20210;-85
2023/12/04 02:15:32;;;;;;;19.38;11.35;;;;;;;-1.68;82.71;98087.38;4184752;28;20633;-84
2023/12/04 02:17:36;;;;;;;16.77;9.70;;;;;;;-1.69;83.71;98095.91;4164455;28;20600;-83
2023/12/04 02:19:39;;;;;;;19.38;10.77;;;;;;;-1.63;82.80;98088.13;4184269;28;20212;-84
2023/12/04 02:21:43;;;;;;;19.50;10.05;;;;;;;-1.63;82.68;98086.41;4185066;28;20216;-86
2023/12/04 02:23:50;;;;;;;19.50;10.35;;;;;;;-1.63;83.14;98077.91;4189456;28;20197;-84
2023/12/04 02:25:54;;;;;;;21.05;11.43;;;;;;;-1.63;83.45;98085.56;4171121;28;20307;-84
2023/12/04 02:28:00;;;;;;;14.73;9.10;;;;;;;-1.64;83.30;98074.53;4188880;28;20213;-84
2023/12/04 02:30:07;;;;;;;17.30;9.63;;;;;;;-1.63;82.97;98072.78;4199730;28;20198;-84
2023/12/04 02:32:12;;;;;;;18.10;10.27;;;;;;;-1.59;83.00;98075.25;4186635;28;20245;-84
2023/12/04 02:34:16;;;;;;;15.93;9.55;;;;;;;-1.59;82.55;98074.41;4166311;28;20293;-84
2023/12/04 02:36:19;;;;;;;15.60;9.70;;;;;;;-1.61;82.87;98068.47;4183007;28;20303;-84
2023/12/04 02:38:23;;;;;;;18.58;9.75;;;;;;;-1.56;82.88;98064.13;4203374;28;20201;-85
2023/12/04 02:40:27;;;;;;;18.25;9.88;;;;;;;-1.55;83.07;98055.56;4183609;28;20783;-84
2023/12/04 02:42:30;;;;;;;17.60;9.65;;;;;;;-1.54;83.22;98047.88;4171612;28;20709;-84
2023/12/04 02:44:34;;;;;;;17.42;9.93;;;;;;;-1.54;83.32;98050.44;4185579;28;20297;-85
2023/12/04 02:46:36;;;;;;;18.92;9.80;;;;;;;-1.48;83.27;98046.91;4188313;28;20305;-84
2023/12/04 02:48:39;;;;;;;17.15;10.07;;;;;;;-1.54;83.29;98049.59;4184699;28;20201;-84
2023/12/04 02:50:42;;;;;;;15.40;9.23;;;;;;;-1.56;83.64;98046.25;4185580;28;20209;-86
2023/12/04 02:52:46;;;;;;;17.50;9.95;;;;;;;-1.54;83.77;98054.72;4175513;28;20289;-84
2023/12/04 02:54:49;;;;;;;17.10;10.10;;;;;;;-1.53;83.64;98056.38;4205138;28;20200;-84
2023/12/04 02:56:53;;;;;;;15.93;10.10;;;;;;;-1.51;83.92;98049.53;4190197;28;20368;-84
2023/12/04 02:58:56;;;;;;;19.13;9.40;;;;;;;-1.50;83.06;98049.50;4186209;28;20255;-84
2023/12/04 03:00:59;;;;;;;16.45;9.73;;;;;;;-1.52;83.69;98040.16;4183167;28;20210;-84
2023/12/04 03:03:02;;;;;;;16.20;9.70;;;;;;;-1.51;83.34;98045.25;4170496;28;20203;-84
2023/12/04 03:05:07;;;;;;;15.95;9.40;;;;;;;-1.54;82.87;98034.25;4191820;28;20222;-84
2023/12/04 03:07:10;;;;;;;20.67;10.90;;;;;;;-1.54;82.80;98034.25;4173726;28;20217;-84
2023/12/04 03:09:13;;;;;;;17.00;9.48;;;;;;;-1.54;82.99;98024.03;4173047;28;20489;-84
2023/12/04 03:11:16;;;;;;;14.80;9.05;;;;;;;-1.55;83.02;98024.91;4189200;28;20245;-84
2023/12/04 03:13:21;;;;;;;16.73;8.93;;;;;;;-1.56;83.00;98018.97;4175372;28;20202;-84
2023/12/04 03:15:24;;;;;;;14.43;8.93;;;;;;;-1.60;82.83;98012.22;4187674;28;20202;-84
2023/12/04 03:17:27;;;;;;;12.07;7.13;;;;;;;-1.57;83.11;98006.22;4185702;28;20288;-84
2023/12/04 03:19:30;;;;;;;16.02;8.80;;;;;;;-1.54;82.87;97998.47;4187775;28;20243;-84
2023/12/04 03:21:34;;;;;;;16.95;10.13;;;;;;;-1.52;83.04;97999.28;4190163;28;20205;-84
2023/12/04 03:23:37;;;;;;;17.48;10.18;;;;;;;-1.49;82.89;97988.97;4190514;28;20231;-84
2023/12/04 03:25:40;;;;;;;13.82;8.63;;;;;;;-1.49;82.79;97986.44;4191864;28;20249;-86
2023/12/04 03:27:44;;;;;;;19.77;9.55;;;;;;;-1.47;82.79;97992.34;4187584;28;20759;-84
2023/12/04 03:29:48;;;;;;;15.52;8.95;;;;;;;-1.49;82.84;97979.59;4176472;28;20206;-84
2023/12/04 03:31:51;;;;;;;16.17;8.85;;;;;;;-1.48;82.99;97975.34;4182098;28;20268;-85
2023/12/04 03:33:55;;;;;;;19.08;10.13;;;;;;;-1.50;82.77;97980.47;4185493;28;20651;-86
2023/12/04 03:36:00;;;;;;;14.23;8.95;;;;;;;-1.58;82.99;97968.75;4182393;28;20229;-84
2023/12/04 03:38:05;;;;;;;17.20;9.00;;;;;;;-1.55;83.59;97971.22;4192038;28;20663;-84
2023/12/04 03:40:09;;;;;;;19.50;9.85;;;;;;;-1.55;83.50;97955.91;4188414;28;20202;-85
2023/12/04 03:42:12;;;;;;;14.65;7.93;;;;;;;-1.56;83.58;97961.91;4175837;28;20214;-85
2023/12/04 03:44:15;;;;;;;15.15;9.05;;;;;;;-1.55;83.07;97969.50;4189461;28;20297;-86
2023/12/04 03:46:20;;;;;;;14.35;8.10;;;;;;;-1.51;82.95;97960.06;4185039;28;20229;-84
2023/12/04 03:48:24;;;;;;;16.23;8.35;;;;;;;-1.48;83.04;97954.91;4173139;28;20272;-84
2023/12/04 03:50:27;;;;;;;16.20;8.15;;;;;;;-1.50;82.71;97944.72;4186485;28;20197;-84
2023/12/04 03:52:30;;;;;;;18.30;9.63;;;;;;;-1.50;82.39;97947.25;4185607;28;20267;-84
2023/12/04 03:54:33;;;;;;;14.50;8.30;;;;;;;-1.51;82.76;97945.56;4171988;28;20252;-85
2023/12/04 03:56:37;;;;;;;14.50;7.60;;;;;;;-1.47;83.13;97942.06;4187429;28;20225;-84
2023/12/04 03:58:40;;;;;;;14.38;9.13;;;;;;;-1.46;82.72;97919.91;4188950;28;20197;-84
2023/12/04 04:00:45;;;;;;;13.70;8.50;;;;;;;-1.42;82.93;97930.84;4172559;28;20206;-85
2023/12/04 04:02:50;;;;;;;15.73;8.60;;;;;;;-1.42;82.54;97936.84;4187030;28;20193;-84
2023/12/04 04:04:53;;;;;;;11.45;7.15;;;;;;;-1.35;82.32;97926.44;4186695;28;20268;-85
2023/12/04 04:06:56;;;;;;;19.85;9.10;;;;;;;-1.42;83.17;97921.50;4188732;28;20228;-83
2023/12/04 04:08:59;;;;;;;15.52;8.68;;;;;;;-1.44;82.82;97921.56;4184462;28;20205;-84
2023/12/04 04:11:02;;;;;;;11.75;7.13;;;;;;;-1.45;82.38;97917.31;4171756;28;20564;-86
2023/12/04 04:13:05;;;;;;;14.45;8.85;;;;;;;-1.48;82.45;97908.88;4174019;28;20217;-84
2023/12/04 04:15:09;;;;;;;14.43;8.48;;;;;;;-1.50;82.61;97910.63;4188002;28;20607;-85
2023/12/04 04:17:12;;;;;;;15.38;8.90;;;;;;;-1.49;82.76;97919.97;4173065;28;20205;-85
2023/12/04 04:19:16;;;;;;;13.02;8.20;;;;;;;-1.47;83.10;97908.84;4189958;28;20202;-84
2023/12/04 04:21:18;;;;;;;12.95;8.30;;;;;;;-1.46;82.81;97907.13;4190825;28;20698;-85
2023/12/04 04:23:21;;;;;;;16.67;8.77;;;;;;;-1.47;82.52;97906.28;4191066;28;20284;-84
2023/12/04 04:25:25;;;;;;;13.40;8.38;;;;;;;-1.48;82.54;97906.31;4172950;28;20202;-84
2023/12/04 04:27:28;;;;;;;16.90;8.77;;;;;;;-1.50;82.42;97911.47;4172717;28;20218;-85
2023/12/04 04:29:31;;;;;;;13.98;8.13;;;;;;;-1.49;82.91;97920.81;4189033;28;20214;-84
2023/12/04 04:31:34;;;;;;;12.82;8.07;;;;;;;-1.46;82.95;97922.47;4185992;28;20225;-84
2023/12/04 04:33:38;;;;;;;12.00;7.20;;;;;;;-1.48;82.98;97924.22;4190255;28;20213;-84
2023/12/04 04:35:43;;;;;;;13.80;8.10;;;;;;;-1.47;83.06;97929.28;4184859;28;20224;-85
2023/12/04 04:37:46;;;;;;;15.80;8.18;;;;;;;-1.49;82.43;97927.66;4189461;28;20306;-86
2023/12/04 04:39:52;;;;;;;15.82;8.70;;;;;;;-1.50;82.85;97929.38;4188265;28;20308;-84
2023/12/04 04:41:55;;;;;;;13.40;7.85;;;;;;;-1.48;82.91;97926.78;4184863;28;20576;-84
2023/12/04 04:43:58;;;;;;;18.45;8.00;;;;;;;-1.46;82.72;97927.56;4181938;28;20768;-85
2023/12/04 04:46:01;;;;;;;14.85;8.68;;;;;;;-1.47;82.75;97925.88;4189416;28;20229;-84
2023/12/04 04:48:05;;;;;;;16.08;8.57;;;;;;;-1.46;82.82;97930.94;4188995;28;20210;-86
2023/12/04 04:50:08;;;;;;;13.32;8.20;;;;;;;-1.43;83.13;97930.06;4185859;28;20691;-84
2023/12/04 04:52:12;;;;;;;14.73;7.70;;;;;;;-1.45;82.95;97929.25;4189457;28;20241;-84
2023/12/04 04:54:15;;;;;;;12.80;7.10;;;;;;;-1.48;83.29;97925.06;4184059;28;20723;-84
2023/12/04 04:56:19;;;;;;;14.02;7.72;;;;;;;-1.44;83.19;97934.34;4191612;28;20194;-85
2023/12/04 04:58:22;;;;;;;16.00;8.75;;;;;;;-1.42;83.28;97927.47;4184402;28;20224;-85
2023/12/04 05:00:25;;;;;;;14.85;8.27;;;;;;;-1.40;82.92;97929.09;4189321;28;20201;-85
2023/12/04 05:02:31;;;;;;;15.82;8.10;;;;;;;-1.38;83.30;97931.63;4182868;28;20248;-84
2023/12/04 05:04:34;;;;;;;12.90;8.02;;;;;;;-1.37;82.84;97930.72;4184306;28;20206;-84
2023/12/04 05:06:38;;;;;;;15.02;8.20;;;;;;;-1.38;83.12;97929.06;4186791;28;20226;-84
2023/12/04 05:08:42;;;;;;;15.77;8.27;;;;;;;-1.34;82.95;97931.53;4185520;28;20220;-85
2023/12/04 05:10:48;;;;;;;14.32;8.18;;;;;;;-1.32;82.78;97926.38;4181525;28;20229;-83
2023/12/04 05:12:51;;;;;;;15.65;8.23;;;;;;;-1.30;82.99;97925.44;4170218;28;20214;-85
2023/12/04 05:14:54;;;;;;;10.07;7.50;;;;;;;-1.31;83.38;97925.47;4197442;28;20209;-86
2023/12/04 05:16:57;;;;;;;14.15;8.18;;;;;;;-1.31;83.29;97920.34;4187312;28;20225;-84
2023/12/04 05:19:00;;;;;;;13.05;7.85;;;;;;;-1.26;83.12;97913.44;4183657;28;20292;-84
2023/12/04 05:21:04;;;;;;;14.77;7.93;;;;;;;-1.26;82.91;97916.81;4190503;28;20675;-84
2023/12/04 05:23:08;;;;;;;29.90;9.38;;;;;;;-1.30;82.70;97912.66;4189080;28;20233;-84
2023/12/04 05:25:12;;;;;;;16.02;8.50;;;;;;;-1.31;82.17;97910.13;4185560;28;20402;-84
2023/12/04 05:27:16;;;;;;;18.10;9.13;;;;;;;-1.36;82.12;97906.84;4171657;28;20269;-85
2023/12/04 05:29:19;;;;;;;13.75;8.68;;;;;;;-1.42;82.25;97905.28;4188441;28;20297;-84
2023/12/04 05:31:22;;;;;;;13.35;8.27;;;;;;;-1.42;82.56;97903.63;4184309;28;20702;-84
2023/12/04 05:33:25;;;;;;;14.20;8.48;;;;;;;-1.42;82.67;97892.50;4170202;28;20269;-84
2023/12/04 05:35:29;;;;;;;17.45;9.55;;;;;;;-1.42;82.92;97892.50;4167295;28;20266;-84
2023/12/04 05:37:31;;;;;;;16.98;8.98;;;;;;;-1.37;82.96;97888.13;4190613;28;20681;-85
2023/12/04 05:39:35;;;;;;;19.75;10.65;;;;;;;-1.36;82.96;97889.78;4183053;28;20233;-84
2023/12/04 05:41:39;;;;;;;17.15;9.43;;;;;;;-1.33;82.72;97888.88;4184706;28;20233;-85
2023/12/04 05:43:42;;;;;;;21.25;9.52;;;;;;;-1.34;82.93;97880.38;4168706;28;20237;-84
2023/12/04 05:45:45;;;;;;;19.27;9.60;;;;;;;-1.34;82.56;97893.16;4186333;28;20690;-85
2023/12/04 05:47:52;;;;;;;13.95;8.45;;;;;;;-1.32;83.00;97882.91;4189033;28;20376;-84
2023/12/04 05:49:55;;;;;;;16.05;9.43;;;;;;;-1.32;82.97;97877.78;4183251;28;20206;-84
2023/12/04 05:51:59;;;;;;;16.40;8.93;;;;;;;-1.35;82.71;97873.59;4164148;28;20755;-84
2023/12/04 05:54:02;;;;;;;14.23;9.02;;;;;;;-1.37;82.65;97867.69;4173829;28;20206;-85
2023/12/04 05:56:06;;;;;;;14.55;8.35;;;;;;;-1.36;82.72;97863.41;4189514;28;20232;-84
2023/12/04 05:58:10;;;;;;;15.30;9.00;;;;;;;-1.38;82.46;97860.06;4184351;28;20193;-84
2023/12/04 06:00:14;;;;;;;14.75;8.75;;;;;;;-1.39;83.15;97866.03;4188828;28;20229;-83
2023/12/04 06:02:19;;;;;;;13.50;8.50;;;;;;;-1.41;83.11;97855.84;4184893;28;20256;-84
2023/12/04 06:04:22;;;;;;;16.48;9.95;;;;;;;-1.40;82.98;97852.41;4166199;28;20241;-85
2023/12/04 06:06:25;;;;;;;14.50;8.57;;;;;;;-1.40;83.00;97852.41;4185325;28;20837;-84
2023/12/04 06:08:27;;;;;;;13.50;8.50;;;;;;;-1.40;83.01;97844.75;4171516;28;20225;-85
2023/12/04 06:10:30;;;;;;;15.48;9.68;;;;;;;-1.38;83.16;97847.28;4187102;28;20752;-84
2023/12/04 06:12:33;;;;;;;15.68;9.13;;;;;;;-1.38;82.83;97848.09;4189068;28;20205;-85
2023/12/04 06:14:38;;;;;;;14.43;9.10;;;;;;;-1.40;82.56;97852.41;4186650;28;20232;-85
2023/12/04 06:16:41;;;;;;;15.48;9.43;;;;;;;-1.40;83.02;97841.34;4165384;28;20218;-84
2023/12/04 06:18:44;;;;;;;14.07;8.82;;;;;;;-1.40;82.86;97846.44;4190498;28;20292;-85
2023/12/04 06:20:47;;;;;;;14.32;8.70;;;;;;;-1.42;82.59;97849.03;4186591;28;20210;-84
2023/12/04 06:22:51;;;;;;;15.30;8.85;;;;;;;-1.39;82.81;97845.56;4174677;28;20257;-84
2023/12/04 06:24:55;;;;;;;12.90;8.20;;;;;;;-1.42;82.82;97843.94;4192755;28;20209;-85
2023/12/04 06:26:58;;;;;;;15.57;8.80;;;;;;;-1.42;83.01;97845.66;4187533;28;20259;-85
2023/12/04 06:29:02;;;;;;;13.48;7.82;;;;;;;-1.39;82.85;97850.69;4173004;28;20230;-84
2023/12/04 06:31:08;;;;;;;15.75;9.00;;;;;;;-1.42;82.54;97855.06;4200335;28;20324;-84
2023/12/04 06:33:14;;;;;;;13.88;7.95;;;;;;;-1.43;82.80;97851.63;4193718;28;20205;-84
2023/12/04 06:35:18;;;;;;;16.90;9.48;;;;;;;-1.40;82.92;97851.56;4170699;28;20249;-84
2023/12/04 06:37:23;;;;;;;18.42;9.38;;;;;;;-1.38;83.08;97853.22;4186739;28;20206;-84
2023/12/04 06:39:29;;;;;;;15.02;10.35;;;;;;;-1.40;83.05;97854.13;4190286;28;20225;-84
2023/12/04 06:41:33;;;;;;;17.05;9.30;;;;;;;-1.39;82.96;97855.81;4170945;28;20210;-84
2023/12/04 06:43:37;;;;;;;13.95;9.20;;;;;;;-1.43;82.83;97856.75;4191245;28;20303;-84
2023/12/04 06:45:41;;;;;;;17.58;9.52;;;;;;;-1.46;83.12;97856.81;4189421;28;20206;-84
2023/12/04 06:47:47;;;;;;;17.48;9.75;;;;;;;-1.45;83.19;97850.84;4173928;28;20222;-84
2023/12/04 06:49:50;;;;;;;14.15;8.55;;;;;;;-1.45;83.40;97855.97;4190487;28;21934;-84
2023/12/04 06:51:53;;;;;;;12.48;7.60;;;;;;;-1.47;83.73;97844.94;4187729;28;20699;-84
2023/12/04 06:53:56;;;;;;;12.35;7.38;;;;;;;-1.42;83.48;97850.78;4173191;28;20675;-85
2023/12/04 06:56:00;;;;;;;14.13;8.55;;;;;;;-1.42;83.56;97852.50;4202986;28;20615;-85
2023/12/04 06:58:03;;;;;;;15.15;9.25;;;;;;;-1.41;83.81;97853.28;4175225;28;20206;-85
2023/12/04 07:00:08;;;;;;;16.77;8.80;;;;;;;-1.40;83.54;97854.97;4187082;28;20225;-84
2023/12/04 07:02:24;;;;;;;13.20;8.65;;;;;;;-1.42;83.84;97849.03;4179725;28;20202;-85
2023/12/04 07:04:29;;;;;;;15.25;8.85;;;;;;;-1.38;83.48;97852.38;4188806;28;20213;-84
2023/12/04 07:06:32;;;;;;;14.07;8.23;;;;;;;-1.35;83.56;97850.56;4182456;28;20730;-84
2023/12/04 07:08:35;;;;;;;14.80;8.75;;;;;;;-1.32;83.95;97852.22;4188048;28;20257;-84
2023/12/04 07:10:38;;;;;;;13.48;8.60;;;;;;;-1.31;84.25;97852.19;4189356;28;20259;-85
2023/12/04 07:12:42;;;;;;;15.20;8.93;;;;;;;-1.26;83.57;97852.91;4164223;28;20206;-84
2023/12/04 07:14:45;;;;;;;14.70;9.00;;;;;;;-1.25;83.76;97844.34;4184452;28;20888;-84
2023/12/04 07:16:49;;;;;;;15.55;9.20;;;;;;;-1.22;83.01;97853.66;4186416;28;20213;-85
2023/12/04 07:18:52;;;;;;;14.00;8.98;;;;;;;-1.24;83.30;97840.06;4172988;28;20206;-85
2023/12/04 07:20:57;;;;;;;13.82;8.35;;;;;;;-1.23;83.50;97849.44;4173841;28;20207;-87
2023/12/04 07:23:00;;;;;;;15.15;9.45;;;;;;;-1.24;83.21;97840.91;4182936;28;20250;-86
2023/12/04 07:25:02;;;;;;;16.27;9.95;;;;;;;-1.22;83.46;97841.72;4172993;28;20194;-86
2023/12/04 07:27:06;;;;;;;15.50;8.95;;;;;;;-1.22;83.48;97836.59;4189629;28;20202;-85
2023/12/04 07:29:09;;;;;;;16.20;8.73;;;;;;;-1.24;83.28;97833.22;4175866;28;20229;-85
2023/12/04 07:31:12;;;;;;;18.52;9.98;;;;;;;-1.21;83.71;97833.16;4185139;28;20316;-87
2023/12/04 07:33:16;;;;;;;15.93;9.65;;;;;;;-1.18;83.98;97835.63;4181308;28;20237;-87
2023/12/04 07:35:19;;;;;;;39.05;18.25;;;;;;;-1.18;83.87;97820.28;4188401;28;20221;-86
2023/12/04 07:37:24;;;;;;;25.67;12.00;;;;;;;-1.16;84.11;97815.94;4167325;28;20288;-85
2023/12/04 07:39:27;;;;;;;17.83;10.73;;;;;;;-1.11;84.00;97819.25;4182258;28;20693;-87
2023/12/04 07:41:30;;;;;;;17.63;11.20;;;;;;;-1.07;83.63;97815.69;4167963;28;20724;-87
2023/12/04 07:43:34;;;;;;;15.23;10.10;;;;;;;-1.05;84.60;97816.53;4171269;28;20272;-86
2023/12/04 07:45:37;;;;;;;16.15;9.63;;;;;;;-1.03;84.07;97809.63;4195347;28;20201;-87
2023/12/04 07:47:40;;;;;;;15.90;9.20;;;;;;;-1.01;84.46;97802.75;4189727;28;20208;-87
2023/12/04 07:49:46;;;;;;;23.92;9.80;;;;;;;-1.00;84.33;97795.94;4176180;28;20245;-87
2023/12/04 07:51:49;;;;;;;26.85;13.65;;;;;;;-0.95;83.89;97789.78;4189003;28;20201;-88
2023/12/04 07:53:54;;;;;;;24.27;11.70;;;;;;;-0.95;83.75;97797.44;4188881;28;20209;-88
2023/12/04 07:55:57;;;;;;;21.58;12.05;;;;;;;-0.95;83.86;97788.94;4187928;28;20743;-89
2023/12/04 07:58:00;;;;;;;23.30;13.30;;;;;;;-0.89;83.98;97794.72;4184145;28;20194;-87
2023/12/04 08:00:04;;;;;;;26.98;14.27;;;;;;;-0.84;83.98;97795.44;4187841;28;20791;-87
2023/12/04 08:02:07;;;;;;;21.00;11.30;;;;;;;-0.84;83.92;97792.91;4192025;28;20205;-87
2023/12/04 08:04:10;;;;;;;28.58;16.15;;;;;;;-0.80;84.34;97794.47;4187419;28;20202;-87
2023/12/04 08:06:15;;;;;;;19.05;11.90;;;;;;;-0.71;84.16;97794.19;4191878;28;20205;-87
2023/12/04 08:08:17;;;;;;;18.98;10.98;;;;;;;-0.67;84.15;97785.56;4188172;28;20582;-87
2023/12/04 08:10:23;;;;;;;22.48;10.68;;;;;;;-0.62;84.63;97799.88;4189242;28;20233;-87
2023/12/04 08:12:27;;;;;;;16.52;9.30;;;;;;;-0.56;84.38;97796.31;4184565;28;20206;-87
2023/12/04 08:14:30;;;;;;;16.75;9.57;;;;;;;-0.51;83.98;97792.75;4189064;28;20293;-87
2023/12/04 08:16:33;;;;;;;19.27;10.35;;;;;;;-0.45;84.33;97790.00;4177456;28;20696;-87
2023/12/04 08:18:35;;;;;;;14.35;9.00;;;;;;;-0.39;84.01;97792.38;4188524;28;20742;-87
2023/12/04 08:20:38;;;;;;;14.20;8.15;;;;;;;-0.35;84.30;97786.25;4173900;28;20896;-87
2023/12/04 08:22:44;;;;;;;13.40;7.85;;;;;;;-0.30;84.25;97776.69;4195151;28;20202;-87
2023/12/04 08:24:47;;;;;;;13.93;8.65;;;;;;;-0.30;83.69;97767.31;4171713;28;20203;-87
2023/12/04 08:26:52;;;;;;;22.60;11.82;;;;;;;-0.34;83.93;97764.88;4169336;28;20218;-87
2023/12/04 08:28:56;;;;;;;22.45;12.75;;;;;;;-0.31;84.99;97759.66;4177264;28;20237;-87
2023/12/04 08:30:59;;;;;;;16.70;10.25;;;;;;;-0.23;85.19;97753.41;4168107;28;20233;-87
2023/12/04 08:33:03;;;;;;;22.83;12.23;;;;;;;-0.13;85.23;97754.78;4207368;28;20300;-88
2023/12/04 08:35:06;;;;;;;19.80;11.25;;;;;;;-0.05;84.61;97760.50;4183273;28;20213;-87
2023/12/04 08:37:09;;;;;;;49.17;25.40;;;;;;;0.00;84.74;97748.41;4172305;28;20684;-87
2023/12/04 08:39:11;;;;;;;14.25;9.93;;;;;;;0.05;84.46;97743.94;4190051;28;20289;-86
2023/12/04 08:41:14;;;;;;;22.30;12.38;;;;;;;0.10;84.91;97749.75;4174295;28;20214;-87
2023/12/04 08:43:19;;;;;;;27.25;15.73;;;;;;;0.16;85.19;97762.38;4170397;28;20207;-89
2023/12/04 08:45:22;;;;;;;20.55;11.30;;;;;;;0.22;84.86;97767.28;4187811;28;20201;-89
2023/12/04 08:47:25;;;;;;;14.00;9.45;;;;;;;0.23;84.53;97767.25;4188203;28;20228;-88
2023/12/04 08:49:29;;;;;;;16.73;10.25;;;;;;;0.27;85.32;97761.13;4186935;28;20228;-88
2023/12/04 08:51:45;;;;;;;14.45;8.40;;;;;;;0.34;85.11;97751.50;4186012;28;20235;-88
2023/12/04 08:53:48;;;;;;;14.32;9.55;;;;;;;0.39;85.50;97745.31;4184767;28;20780;-89
2023/12/04 08:55:52;;;;;;;15.70;9.35;;;;;;;0.51;85.37;97750.00;4188597;28;20588;-89
2023/12/04 08:57:56;;;;;;;13.75;9.07;;;;;;;0.58;84.83;97754.88;4191310;28;20202;-88
2023/12/04 09:00:00;;;;;;;16.02;10.32;;;;;;;0.66;84.30;97754.59;4182008;28;20832;-89
2023/12/04 09:02:03;;;;;;;18.13;12.10;;;;;;;0.72;83.65;97762.94;4191328;28;20334;-89
2023/12/04 09:04:09;;;;;;;16.55;10.40;;;;;;;0.78;83.91;97756.75;4186210;28;20198;-88
2023/12/04 09:06:14;;;;;;;15.90;9.85;;;;;;;0.80;83.76;97757.50;4186668;28;20202;-88
2023/12/04 09:08:18;;;;;;;24.13;14.30;;;;;;;0.83;83.36;97758.25;4192651;28;20193;-88
2023/12/04 09:10:39;;;;;;;25.00;14.40;;;;;;;0.84;83.80;97761.66;4186587;28;20592;-88
2023/12/04 09:13:02;;;;;;;26.20;14.63;;;;;;;0.88;84.24;97765.81;4189800;28;20284;-88
2023/12/04 09:15:06;;;;;;;24.45;15.52;;;;;;;0.93;84.51;97772.41;4185348;28;20640;-88
2023/12/04 09:17:11;;;;;;;23.35;15.70;;;;;;;0.97;84.23;97766.28;4182345;28;20756;-88
2023/12/04 09:19:13;;;;;;;20.45;12.70;;;;;;;1.02;84.15;97764.41;4183605;28;20232;-89
2023/12/04 09:21:17;;;;;;;17.67;11.00;;;;;;;1.03;83.97;97763.50;4174056;28;20202;-89
2023/12/04 09:23:20;;;;;;;15.27;9.70;;;;;;;1.07;83.89;97771.03;4183865;28;20190;-89
2023/12/04 09:25:24;;;;;;;15.43;10.35;;;;;;;1.11;84.28;97770.06;4173840;28;20202;-89
2023/12/04 09:27:27;;;;;;;18.23;11.02;;;;;;;1.18;83.57;97776.63;4185116;28;20226;-89
2023/12/04 09:29:30;;;;;;;19.60;13.45;;;;;;;1.20;83.58;97771.41;4190725;28;20217;-88
2023/12/04 09:31:35;;;;;;;15.88;8.30;;;;;;;1.24;83.42;97775.56;4189211;28;20229;-89
2023/12/04 09:33:38;;;;;;;16.35;9.65;;;;;;;1.26;83.53;97764.31;4189509;28;20208;-88